Time;durP1;ratioP1;P1;durP2;ratioP2;P2;SDS_P1;SDS_P2;PMS_P1;PMS_P2;Temp;Humidity;BMP_temperature;BMP_pressure;BME280_temperature;BME280_humidity;BME280_pressure;Samples;Min_cycle;Max_cycle;Signal;HPM_P1;HPM_P2
2023/06/07 00:01:28;;;;;;;8.10;4.60;;;;;;;18.26;64.16;100939.51;107799;1260;61741;-77
2023/06/07 00:03:55;;;;;;;6.40;4.40;;;;;;;18.27;64.08;100939.80;107875;1256;61106;-79
2023/06/07 00:06:23;;;;;;;5.20;3.80;;;;;;;18.25;64.04;100939.35;107669;1257;74694;-79
2023/06/07 00:08:50;;;;;;;6.30;4.00;;;;;;;18.22;64.06;100938.28;107763;1258;72667;-79
2023/06/07 00:11:20;;;;;;;8.80;4.40;;;;;;;18.17;64.11;100935.55;107718;1259;72410;-79
2023/06/07 00:13:50;;;;;;;6.20;4.30;;;;;;;18.12;64.13;100940.85;107677;1256;62000;-79
2023/06/07 00:16:17;;;;;;;6.90;4.50;;;;;;;18.05;64.20;100939.45;107835;1261;61128;-79
2023/06/07 00:18:44;;;;;;;4.70;3.80;;;;;;;18.02;64.18;100937.94;107728;1259;74448;-79
2023/06/07 00:21:11;;;;;;;6.20;4.10;;;;;;;17.99;64.15;100940.94;107690;1258;71246;-79
2023/06/07 00:23:38;;;;;;;8.20;4.40;;;;;;;17.98;64.11;100941.79;107719;1258;72730;-79
2023/06/07 00:26:05;;;;;;;6.40;4.30;;;;;;;17.96;64.12;100938.36;107839;1256;61804;-80
2023/06/07 00:28:32;;;;;;;6.50;4.50;;;;;;;17.90;64.06;100943.65;107916;1256;61749;-79
2023/06/07 00:30:58;;;;;;;8.70;4.40;;;;;;;17.84;63.98;100943.98;107898;1256;73318;-79
2023/06/07 00:33:25;;;;;;;6.80;4.10;;;;;;;17.78;63.96;100938.52;107959;1257;71481;-79
2023/06/07 00:35:52;;;;;;;8.10;4.20;;;;;;;17.74;64.01;100940.50;107941;1261;71147;-79
2023/06/07 00:38:19;;;;;;;6.60;4.60;;;;;;;17.72;63.94;100938.21;107723;1256;61284;-79
2023/06/07 00:40:47;;;;;;;7.20;4.30;;;;;;;17.68;64.01;100937.14;107936;1256;61136;-79
2023/06/07 00:43:14;;;;;;;6.70;4.20;;;;;;;17.65;64.00;100939.89;107771;1256;74708;-77
2023/06/07 00:45:41;;;;;;;6.40;4.40;;;;;;;17.64;64.03;100938.29;107795;1260;73160;-78
2023/06/07 00:48:10;;;;;;;6.80;4.40;;;;;;;17.60;64.11;100935.20;107840;1256;72583;-79
2023/06/07 00:50:38;;;;;;;7.70;4.90;;;;;;;17.57;64.25;100934.42;107644;1256;61532;-79
2023/06/07 00:53:05;;;;;;;6.80;4.60;;;;;;;17.54;64.27;100930.60;107916;1257;60100;-78
2023/06/07 00:55:32;;;;;;;7.40;4.50;;;;;;;17.51;64.40;100933.51;107867;1259;75114;-78
2023/06/07 00:58:00;;;;;;;8.60;4.70;;;;;;;17.50;64.58;100935.84;107733;1256;72746;-77
2023/06/07 01:00:28;;;;;;;7.50;4.80;;;;;;;17.51;64.62;100934.91;107663;1256;72616;-78
2023/06/07 01:02:57;;;;;;;8.40;5.40;;;;;;;17.53;64.74;100935.36;107899;1256;61871;-78
2023/06/07 01:05:25;;;;;;;6.00;4.40;;;;;;;17.55;64.86;100936.59;107851;1260;61109;-78
2023/06/07 01:07:53;;;;;;;6.80;4.20;;;;;;;17.57;64.88;100938.88;107921;1256;74590;-77
2023/06/07 01:10:20;;;;;;;7.40;4.30;;;;;;;17.59;64.90;100938.90;107930;1256;73143;-78
2023/06/07 01:12:47;;;;;;;6.30;4.90;;;;;;;17.60;64.92;100942.60;107767;1262;72762;-78
2023/06/07 01:15:14;;;;;;;6.40;4.60;;;;;;;17.61;64.85;100938.48;107948;1256;61911;-78
2023/06/07 01:17:44;;;;;;;6.60;4.70;;;;;;;17.62;64.77;100941.55;107751;1256;61167;-78
2023/06/07 01:20:17;;;;;;;5.80;4.10;;;;;;;17.58;64.79;100943.17;107671;1256;73540;-78
2023/06/07 01:22:45;;;;;;;6.30;4.40;;;;;;;17.53;64.90;100943.54;107971;1256;72962;-78
2023/06/07 01:25:13;;;;;;;6.60;4.60;;;;;;;17.48;64.88;100942.41;107794;1262;71395;-79
2023/06/07 01:27:43;;;;;;;6.20;4.70;;;;;;;17.45;65.05;100941.70;107704;1256;61139;-79
2023/06/07 01:30:11;;;;;;;5.70;4.40;;;;;;;17.44;65.07;100940.10;107969;1256;61228;-79
2023/06/07 01:32:42;;;;;;;6.30;4.50;;;;;;;17.46;65.15;100942.12;107934;1260;74647;-79
2023/06/07 01:35:09;;;;;;;6.50;4.70;;;;;;;17.46;65.19;100938.77;107739;1259;71184;-79
2023/06/07 01:37:36;;;;;;;5.70;4.50;;;;;;;17.41;65.10;100938.46;107885;1256;71169;-79
2023/06/07 01:40:04;;;;;;;6.10;4.50;;;;;;;17.38;65.13;100937.50;107732;1256;61146;-79
2023/06/07 01:42:33;;;;;;;6.20;4.50;;;;;;;17.39;65.16;100942.27;107734;1256;61110;-79
2023/06/07 01:45:00;;;;;;;8.10;5.10;;;;;;;17.39;65.22;100940.27;107941;1256;73452;-79
2023/06/07 01:47:27;;;;;;;5.50;4.30;;;;;;;17.37;65.18;100940.59;107923;1260;71563;-79
2023/06/07 01:49:54;;;;;;;7.00;5.00;;;;;;;17.34;65.29;100937.39;107935;1261;73919;-79
2023/06/07 01:52:21;;;;;;;6.10;4.50;;;;;;;17.23;65.35;100936.32;107901;1257;61724;-79
2023/06/07 01:54:49;;;;;;;6.10;4.50;;;;;;;17.15;65.60;100941.30;107928;1257;61366;-79
2023/06/07 01:57:38;;;;;;;9.80;5.00;;;;;;;17.08;65.82;100945.15;107940;1256;74355;-79
2023/06/07 02:00:09;;;;;;;6.60;4.60;;;;;;;17.01;65.98;100945.03;107762;1256;73215;-79
2023/06/07 02:02:59;;;;;;;7.40;4.10;;;;;;;17.01;66.23;100947.30;107780;1257;71809;-79
2023/06/07 02:05:32;;;;;;;7.10;4.20;;;;;;;17.02;66.30;100948.05;107941;1257;62011;-79
2023/06/07 02:08:03;;;;;;;7.50;3.90;;;;;;;17.03;66.39;100946.99;107698;1257;61104;-79
2023/06/07 02:10:34;;;;;;;5.10;4.40;;;;;;;17.04;66.52;100945.85;107726;1257;74679;-79
2023/06/07 02:13:03;;;;;;;6.40;4.10;;;;;;;17.05;66.53;100944.55;107760;1256;72907;-79
2023/06/07 02:15:30;;;;;;;5.60;4.00;;;;;;;17.08;66.68;100941.05;107715;1256;71664;-79
2023/06/07 02:18:01;;;;;;;5.50;4.10;;;;;;;17.06;66.61;100947.59;107804;1258;61817;-80
2023/06/07 02:20:28;;;;;;;5.30;3.90;;;;;;;16.98;66.68;100952.20;107746;1259;61216;-79
2023/06/07 02:22:56;;;;;;;6.40;4.20;;;;;;;16.92;66.84;100954.91;107859;1256;74605;-79
2023/06/07 02:25:24;;;;;;;5.50;3.90;;;;;;;16.93;67.12;100960.41;107990;1256;72756;-80
2023/06/07 02:27:51;;;;;;;5.80;3.90;;;;;;;17.00;67.28;100961.08;107950;1257;72763;-79
2023/06/07 02:30:19;;;;;;;5.40;4.00;;;;;;;17.07;67.29;100949.75;107935;1257;61764;-78
2023/06/07 02:32:49;;;;;;;6.00;4.20;;;;;;;17.14;67.17;100950.20;107802;1257;61681;-77
2023/06/07 02:35:18;;;;;;;6.40;4.20;;;;;;;17.14;67.14;100948.80;107794;1257;74500;-78
2023/06/07 02:37:45;;;;;;;4.80;3.70;;;;;;;17.15;67.25;100952.63;107890;1257;72507;-77
2023/06/07 02:40:13;;;;;;;6.20;4.40;;;;;;;17.18;67.39;100956.90;107878;1256;71598;-78
2023/06/07 02:42:47;;;;;;;8.60;4.00;;;;;;;17.26;67.45;100950.25;107842;1259;61109;-78
2023/06/07 02:45:14;;;;;;;6.40;4.30;;;;;;;17.34;67.38;100944.89;107659;1258;61155;-78
2023/06/07 02:47:43;;;;;;;5.00;4.00;;;;;;;17.40;67.41;100944.60;107827;1259;74480;-78
2023/06/07 02:50:11;;;;;;;5.60;3.80;;;;;;;17.45;67.29;100946.30;107888;1257;72735;-78
2023/06/07 02:52:38;;;;;;;6.60;4.20;;;;;;;17.48;67.27;100948.21;107877;1257;72413;-78
2023/06/07 02:55:08;;;;;;;6.90;4.40;;;;;;;17.50;67.38;100945.90;107737;1256;61886;-78
2023/06/07 02:57:36;;;;;;;6.50;4.20;;;;;;;17.54;67.33;100944.01;107800;1261;61326;-78
2023/06/07 03:00:08;;;;;;;7.10;4.40;;;;;;;17.56;67.44;100944.93;107723;1257;75994;-77
2023/06/07 03:02:43;;;;;;;5.90;4.20;;;;;;;17.58;67.48;100944.52;107668;1259;72756;-77
2023/06/07 03:05:10;;;;;;;8.40;4.50;;;;;;;17.64;67.44;100944.33;107754;1260;72794;-79
2023/06/07 03:07:40;;;;;;;6.70;4.10;;;;;;;17.68;67.31;100945.63;107615;1262;61064;-77
2023/06/07 03:10:10;;;;;;;6.30;4.20;;;;;;;17.65;67.20;100942.85;107737;1256;61472;-78
2023/06/07 03:12:38;;;;;;;6.20;4.50;;;;;;;17.67;67.17;100943.30;107719;1262;75504;-78
2023/06/07 03:15:07;;;;;;;6.70;4.10;;;;;;;17.72;67.11;100939.89;107606;1262;72638;-78
2023/06/07 03:17:36;;;;;;;7.10;4.70;;;;;;;17.74;67.00;100942.27;107894;1256;72690;-78
2023/06/07 03:20:06;;;;;;;6.90;4.40;;;;;;;17.80;66.95;100942.27;107849;1256;61941;-79
2023/06/07 03:22:38;;;;;;;7.20;4.60;;;;;;;17.84;66.96;100943.72;107696;1257;61170;-78
2023/06/07 03:25:08;;;;;;;7.30;4.60;;;;;;;17.87;66.87;100941.00;107784;1257;75159;-79
2023/06/07 03:27:36;;;;;;;6.50;4.40;;;;;;;17.95;66.86;100943.20;107713;1256;72795;-79
2023/06/07 03:30:12;;;;;;;6.60;3.90;;;;;;;18.07;66.84;100943.31;107871;1256;73827;-78
2023/06/07 03:32:41;;;;;;;7.40;4.30;;;;;;;18.18;66.69;100948.04;107937;1257;61990;-78
2023/06/07 03:35:09;;;;;;;6.90;4.70;;;;;;;18.28;66.35;100949.25;107721;1261;61142;-78
2023/06/07 03:37:36;;;;;;;4.90;3.80;;;;;;;18.35;65.99;100965.23;107795;1257;73245;-78
2023/06/07 03:40:04;;;;;;;7.50;4.40;;;;;;;18.35;65.87;100968.77;107968;1261;72545;-78
2023/06/07 03:42:31;;;;;;;6.30;4.10;;;;;;;18.36;66.01;100954.68;108275;1261;73052;-79
2023/06/07 03:44:58;;;;;;;6.40;4.20;;;;;;;18.44;66.00;100947.61;107768;1258;61999;-79
2023/06/07 03:47:26;;;;;;;6.30;3.70;;;;;;;18.60;65.77;100941.57;107946;1256;61305;-78
2023/06/07 03:49:53;;;;;;;5.70;4.20;;;;;;;18.74;65.36;100939.45;107973;1259;74700;-78
2023/06/07 03:52:22;;;;;;;7.40;4.60;;;;;;;18.88;65.34;100942.73;107711;1257;72757;-78
2023/06/07 03:54:49;;;;;;;5.70;4.40;;;;;;;19.02;64.91;100948.19;107718;1256;72112;-78
2023/06/07 03:57:16;;;;;;;5.10;3.90;;;;;;;19.14;64.62;100954.20;107812;1260;61719;-79
2023/06/07 03:59:44;;;;;;;7.80;3.50;;;;;;;19.27;64.32;100950.52;107715;1258;61433;-78
2023/06/07 04:02:11;;;;;;;7.30;4.00;;;;;;;19.38;63.96;100948.79;107744;1260;74676;-79
2023/06/07 04:04:39;;;;;;;6.50;3.90;;;;;;;19.49;63.78;100947.60;107769;1260;72525;-79
2023/06/07 04:07:07;;;;;;;5.80;3.80;;;;;;;19.59;63.51;100951.98;107745;1257;71550;-78
2023/06/07 04:09:35;;;;;;;6.40;3.50;;;;;;;19.66;63.41;100955.14;107728;1257;61752;-79
2023/06/07 04:12:03;;;;;;;5.30;4.00;;;;;;;19.74;63.10;100954.31;107930;1256;61094;-79
2023/06/07 04:14:30;;;;;;;7.30;4.00;;;;;;;19.81;62.78;100954.17;107904;1262;74733;-78
2023/06/07 04:16:57;;;;;;;7.30;4.60;;;;;;;19.93;62.44;100957.91;107833;1257;72599;-79
2023/06/07 04:19:25;;;;;;;5.90;3.90;;;;;;;20.04;62.16;100957.62;107880;1260;72154;-78
2023/06/07 04:21:53;;;;;;;7.40;3.70;;;;;;;20.17;61.86;100961.38;107838;1256;60756;-78
2023/06/07 04:24:22;;;;;;;7.00;4.20;;;;;;;20.30;61.47;100958.14;107816;1258;61314;-79
2023/06/07 04:26:49;;;;;;;7.50;3.80;;;;;;;20.40;61.10;100957.79;107857;1259;74619;-79
2023/06/07 04:29:20;;;;;;;6.00;3.80;;;;;;;20.52;61.01;100959.10;107693;1258;72695;-79
2023/06/07 04:31:49;;;;;;;8.00;4.30;;;;;;;20.63;60.65;100956.81;107723;1258;72679;-79
2023/06/07 04:34:17;;;;;;;5.90;3.80;;;;;;;20.72;60.00;100957.20;107756;1256;61148;-79
2023/06/07 04:36:49;;;;;;;7.00;3.90;;;;;;;20.87;59.41;100956.41;107685;1257;61135;-79
2023/06/07 04:39:21;;;;;;;7.70;3.80;;;;;;;21.03;58.07;100955.38;107726;1257;74556;-77
2023/06/07 04:41:52;;;;;;;6.10;4.10;;;;;;;21.20;56.74;100957.31;107877;1257;72601;-79
2023/06/07 04:44:27;;;;;;;7.00;3.60;;;;;;;21.36;55.89;100956.88;107715;1256;72353;-79
2023/06/07 04:46:57;;;;;;;6.70;3.60;;;;;;;21.54;55.63;100955.58;107760;1257;61397;-79
2023/06/07 04:49:33;;;;;;;6.90;3.60;;;;;;;21.70;54.51;100955.90;107723;1258;61191;-79
2023/06/07 04:52:02;;;;;;;6.30;3.60;;;;;;;21.83;53.46;100952.11;107538;1262;74947;-79
2023/06/07 04:54:29;;;;;;;5.60;4.00;;;;;;;21.97;51.63;100949.75;108149;1257;72700;-79
2023/06/07 04:56:57;;;;;;;7.90;3.90;;;;;;;22.09;50.42;100951.73;107975;1260;70620;-79
2023/06/07 04:59:25;;;;;;;6.20;3.00;;;;;;;22.27;49.44;100947.75;107911;1256;61147;-79
2023/06/07 05:01:52;;;;;;;5.90;3.30;;;;;;;22.43;46.75;100945.06;107933;1257;61337;-79
2023/06/07 05:04:20;;;;;;;5.30;3.40;;;;;;;22.57;45.80;100946.02;107841;1257;74468;-79
2023/06/07 05:06:58;;;;;;;7.10;3.50;;;;;;;22.68;44.75;100946.60;107713;1262;72849;-79
2023/06/07 05:09:27;;;;;;;9.60;4.00;;;;;;;22.77;43.97;100947.55;107898;1257;72568;-79
2023/06/07 05:11:58;;;;;;;6.00;3.70;;;;;;;22.82;43.48;100950.70;107923;1257;61116;-78
2023/06/07 05:14:25;;;;;;;6.20;3.60;;;;;;;22.92;43.47;100950.40;107869;1262;61170;-78
2023/06/07 05:16:52;;;;;;;6.60;3.70;;;;;;;23.04;42.17;100947.84;107677;1260;74507;-79
2023/06/07 05:19:21;;;;;;;4.90;3.50;;;;;;;23.10;42.07;100946.92;107825;1257;72741;-78
2023/06/07 05:21:48;;;;;;;6.60;3.80;;;;;;;23.20;41.73;100947.98;107735;1262;73240;-79
2023/06/07 05:24:16;;;;;;;7.00;3.50;;;;;;;23.29;41.81;100951.05;107856;1258;61129;-78
2023/06/07 05:26:44;;;;;;;9.40;3.80;;;;;;;23.42;41.49;100951.29;107829;1260;61129;-78
2023/06/07 05:29:11;;;;;;;6.00;4.00;;;;;;;23.58;41.71;100948.81;107742;1257;74639;-79
2023/06/07 05:31:38;;;;;;;6.40;3.70;;;;;;;23.75;41.34;100946.79;107803;1257;72644;-79
2023/06/07 05:34:05;;;;;;;6.90;3.50;;;;;;;23.88;40.97;100950.84;107737;1257;72911;-79
2023/06/07 05:36:34;;;;;;;4.80;3.50;;;;;;;24.01;40.67;100948.23;107718;1257;61122;-81
2023/06/07 05:39:05;;;;;;;6.50;3.80;;;;;;;24.09;40.42;100947.27;107975;1258;61207;-79
2023/06/07 05:41:33;;;;;;;5.90;3.80;;;;;;;24.20;40.42;100950.88;107827;1258;76097;-78
2023/06/07 05:44:01;;;;;;;8.10;4.50;;;;;;;24.31;39.81;100951.80;108036;1257;72771;-79
2023/06/07 05:46:28;;;;;;;5.60;3.60;;;;;;;24.41;38.86;100955.48;107831;1261;72726;-79
2023/06/07 05:48:55;;;;;;;6.30;3.80;;;;;;;24.47;37.62;100952.36;107710;1263;59715;-79
2023/06/07 05:51:24;;;;;;;6.50;3.40;;;;;;;24.54;37.37;100957.11;107999;1261;61124;-79
2023/06/07 05:53:51;;;;;;;8.00;3.60;;;;;;;24.61;37.36;100954.88;107897;1258;74666;-78
2023/06/07 05:56:20;;;;;;;6.10;3.30;;;;;;;24.69;37.19;100953.42;107938;1257;72543;-79
2023/06/07 05:58:49;;;;;;;8.10;4.70;;;;;;;24.81;37.34;100956.45;107699;1258;72380;-80
2023/06/07 06:01:17;;;;;;;18.70;17.10;;;;;;;24.94;36.64;100958.73;107858;1258;61145;-79
2023/06/07 06:03:46;;;;;;;9.30;7.80;;;;;;;25.07;36.62;100958.25;107695;1257;61164;-80
2023/06/07 06:06:15;;;;;;;8.00;4.40;;;;;;;25.18;35.82;100959.01;107876;1256;74682;-79
2023/06/07 06:08:42;;;;;;;6.00;3.50;;;;;;;25.24;35.41;100959.87;107931;1259;72475;-79
2023/06/07 06:11:12;;;;;;;5.50;3.20;;;;;;;25.30;35.36;100959.96;107796;1258;72647;-82
2023/06/07 06:13:40;;;;;;;4.90;3.00;;;;;;;25.44;35.05;100958.41;107742;1257;61254;-79
2023/06/07 06:16:07;;;;;;;6.30;3.40;;;;;;;25.57;33.70;100960.84;107786;1258;61128;-78
2023/06/07 06:18:39;;;;;;;5.00;3.10;;;;;;;25.64;33.88;100961.45;107824;1257;74730;-80
2023/06/07 06:21:06;;;;;;;4.70;2.70;;;;;;;25.80;34.29;100964.63;107799;1258;72678;-77
2023/06/07 06:23:33;;;;;;;5.40;3.20;;;;;;;25.96;33.51;100963.17;107802;1262;72555;-78
2023/06/07 06:26:00;;;;;;;4.80;2.80;;;;;;;26.10;32.82;100964.48;107664;1257;61109;-78
2023/06/07 06:28:29;;;;;;;6.00;3.20;;;;;;;26.17;32.58;100958.65;107858;1258;61136;-78
2023/06/07 06:30:56;;;;;;;6.70;3.00;;;;;;;26.23;32.94;100959.17;107852;1261;74636;-77
2023/06/07 06:33:23;;;;;;;7.20;3.10;;;;;;;26.33;33.07;100956.14;107925;1257;73249;-79
2023/06/07 06:35:53;;;;;;;6.20;3.20;;;;;;;26.48;33.40;100956.98;107827;1257;72374;-78
2023/06/07 06:38:20;;;;;;;7.90;3.10;;;;;;;26.61;33.26;100954.40;107734;1257;61224;-78
2023/06/07 06:40:46;;;;;;;7.50;3.00;;;;;;;26.73;32.84;100956.41;107731;1260;60266;-78
2023/06/07 06:43:13;;;;;;;6.50;2.90;;;;;;;26.82;32.17;100957.08;107865;1258;74643;-79
2023/06/07 06:45:46;;;;;;;6.70;3.10;;;;;;;26.89;32.22;100959.27;107709;1262;72710;-80
2023/06/07 06:48:13;;;;;;;8.70;3.50;;;;;;;26.94;32.84;100953.73;108036;1258;71382;-78
2023/06/07 06:50:40;;;;;;;7.80;3.00;;;;;;;27.06;32.39;100957.04;107745;1257;61196;-79
2023/06/07 06:53:07;;;;;;;7.50;3.70;;;;;;;27.16;32.03;100957.53;107793;1256;61200;-79
2023/06/07 06:55:34;;;;;;;5.60;2.80;;;;;;;27.29;31.92;100960.68;107900;1257;74792;-79
2023/06/07 06:58:01;;;;;;;16.90;4.50;;;;;;;27.44;31.53;100960.52;107902;1257;72255;-79
2023/06/07 07:00:29;;;;;;;4.80;3.20;;;;;;;27.50;30.93;100960.70;107936;1258;72728;-80
2023/06/07 07:02:56;;;;;;;6.80;3.00;;;;;;;27.47;30.84;100963.80;107859;1258;60263;-79
2023/06/07 07:05:23;;;;;;;7.00;2.80;;;;;;;27.47;30.32;100968.56;107748;1258;61154;-80
2023/06/07 07:07:51;;;;;;;7.00;2.80;;;;;;;27.50;29.55;100967.68;107736;1260;74668;-79
2023/06/07 07:10:18;;;;;;;6.00;3.00;;;;;;;27.54;29.69;100968.46;107820;1257;72448;-78
2023/06/07 07:12:45;;;;;;;5.90;3.10;;;;;;;27.56;29.67;100971.02;107795;1261;72627;-78
2023/06/07 07:15:13;;;;;;;5.20;2.60;;;;;;;27.57;29.46;100969.54;107883;1258;62044;-79
2023/06/07 07:17:49;;;;;;;7.20;2.80;;;;;;;27.55;29.10;100972.34;107855;1257;61211;-79
2023/06/07 07:20:17;;;;;;;6.80;3.10;;;;;;;27.52;29.21;100972.11;107808;1257;73069;-79
2023/06/07 07:22:46;;;;;;;6.70;2.80;;;;;;;27.52;29.10;100974.23;107782;1257;72808;-79
2023/06/07 07:25:13;;;;;;;7.10;2.80;;;;;;;27.53;29.21;100976.59;107964;1257;71792;-79
2023/06/07 07:27:40;;;;;;;8.20;3.00;;;;;;;27.51;29.64;100971.63;107957;1260;60814;-78
2023/06/07 07:30:09;;;;;;;4.50;2.70;;;;;;;27.55;30.06;100972.33;107438;1257;61215;-79
2023/06/07 07:32:37;;;;;;;7.40;3.00;;;;;;;27.64;29.84;100972.02;107935;1260;74696;-80
2023/06/07 07:35:34;;;;;;;6.50;2.70;;;;;;;27.77;29.73;100972.14;107646;1257;73056;-80
2023/06/07 07:38:02;;;;;;;6.90;2.80;;;;;;;27.88;29.74;100970.78;107836;1261;72655;-80
2023/06/07 07:40:29;;;;;;;6.40;3.20;;;;;;;28.01;28.95;100974.06;107945;1256;60968;-80
2023/06/07 07:42:56;;;;;;;6.50;3.20;;;;;;;28.12;28.54;100973.32;107836;1257;61144;-80
2023/06/07 07:45:25;;;;;;;8.10;3.10;;;;;;;28.22;28.53;100974.98;107746;1258;74564;-80
2023/06/07 07:47:51;;;;;;;6.90;2.80;;;;;;;28.30;28.70;100977.16;107781;1257;71202;-80
2023/06/07 07:50:20;;;;;;;6.00;3.10;;;;;;;28.43;28.84;100973.54;107772;1257;72037;-80
2023/06/07 07:52:47;;;;;;;6.30;2.50;;;;;;;28.52;28.57;100975.80;107807;1257;60371;-79
2023/06/07 07:55:14;;;;;;;5.40;2.80;;;;;;;28.59;28.27;100979.59;107834;1257;61192;-80
2023/06/07 07:57:42;;;;;;;5.80;2.70;;;;;;;28.64;28.38;100976.38;107786;1258;74871;-79
2023/06/07 08:00:13;;;;;;;;;;;;;;;28.70;28.03;100980.48;107839;1257;71591;-79
2023/06/07 08:02:39;;;;;;;9.30;2.80;;;;;;;28.74;28.39;100978.09;107802;1263;72831;-79
2023/06/07 08:05:08;;;;;;;6.20;3.00;;;;;;;28.75;28.79;100984.33;107774;1257;61180;-80
2023/06/07 08:07:35;;;;;;;7.40;3.30;;;;;;;28.75;28.17;100978.27;107823;1258;60388;-79
2023/06/07 08:10:04;;;;;;;7.20;2.70;;;;;;;28.79;28.16;100980.52;107815;1257;73474;-79
2023/06/07 08:12:32;;;;;;;6.00;3.00;;;;;;;28.84;28.04;100977.29;107819;1257;71816;-78
2023/06/07 08:15:02;;;;;;;5.60;2.90;;;;;;;28.86;28.46;100977.95;107828;1257;72719;-78
2023/06/07 08:17:30;;;;;;;12.00;3.30;;;;;;;28.92;28.60;100979.67;107816;1257;61161;-78
2023/06/07 08:19:58;;;;;;;7.80;2.80;;;;;;;29.00;28.47;100977.85;107833;1257;61579;-79
2023/06/07 08:22:26;;;;;;;5.00;2.70;;;;;;;29.06;28.20;100983.67;107875;1257;74496;-79
2023/06/07 08:24:52;;;;;;;5.70;2.70;;;;;;;29.09;28.50;100982.69;107846;1257;72515;-79
2023/06/07 08:27:19;;;;;;;7.80;2.70;;;;;;;29.10;28.49;100982.00;107829;1258;71545;-79
2023/06/07 08:29:46;;;;;;;7.00;3.20;;;;;;;29.14;28.80;100984.96;107752;1257;61208;-80
2023/06/07 08:32:13;;;;;;;4.20;2.70;;;;;;;29.21;28.65;100985.05;107817;1256;61112;-78
2023/06/07 08:34:41;;;;;;;7.40;2.90;;;;;;;29.32;28.87;100981.33;107930;1257;75705;-79
2023/06/07 08:37:08;;;;;;;5.00;2.60;;;;;;;29.46;28.79;100982.92;107799;1263;72846;-79
2023/06/07 08:39:38;;;;;;;8.30;2.80;;;;;;;29.51;28.15;100983.69;107764;1257;63979;-79
2023/06/07 08:42:08;;;;;;;5.50;2.70;;;;;;;29.46;28.01;100984.02;107804;1257;61898;-80
2023/06/07 08:44:35;;;;;;;7.10;3.10;;;;;;;29.49;28.22;100979.59;107845;1257;61291;-80
2023/06/07 08:47:02;;;;;;;6.50;2.70;;;;;;;29.59;27.92;100981.19;107859;1257;66181;-80
2023/06/07 08:49:32;;;;;;;5.90;2.40;;;;;;;29.61;26.81;100977.30;107836;1256;71294;-80
2023/06/07 08:52:00;;;;;;;4.80;2.20;;;;;;;29.62;26.86;100979.20;107862;1257;64069;-79
2023/06/07 08:54:43;;;;;;;8.20;2.70;;;;;;;29.71;26.81;100979.05;107904;1257;61121;-80
2023/06/07 08:57:16;;;;;;;4.30;2.50;;;;;;;29.72;26.81;100982.30;107922;1258;60028;-79
2023/06/07 08:59:46;;;;;;;6.00;2.50;;;;;;;29.82;26.31;100983.17;107825;1261;66103;-80
2023/06/07 09:02:13;;;;;;;5.40;2.20;;;;;;;29.92;26.16;100982.80;107880;1258;62620;-80
2023/06/07 09:04:41;;;;;;;4.20;2.40;;;;;;;29.95;25.80;100979.77;107834;1257;63880;-80
2023/06/07 09:07:09;;;;;;;5.50;2.60;;;;;;;29.93;25.99;100978.02;107741;1256;61131;-80
2023/06/07 09:09:43;;;;;;;7.70;2.50;;;;;;;29.91;25.14;100977.67;107798;1257;59217;-79
2023/06/07 09:12:10;;;;;;;4.70;2.20;;;;;;;29.82;25.27;100975.63;108026;1257;64767;-79
2023/06/07 09:14:38;;;;;;;7.10;2.50;;;;;;;29.67;25.85;100976.41;107996;1260;73309;-80
2023/06/07 09:17:05;;;;;;;5.30;3.00;;;;;;;29.52;26.17;100975.21;107903;1257;62615;-80
2023/06/07 09:19:36;;;;;;;5.60;2.50;;;;;;;29.49;26.51;100970.98;107882;1257;61216;-80
2023/06/07 09:22:04;;;;;;;4.40;2.20;;;;;;;29.54;26.23;100969.09;107967;1258;61270;-79
2023/06/07 09:24:32;;;;;;;7.30;2.50;;;;;;;29.63;25.88;100965.75;107953;1257;66161;-80
2023/06/07 09:27:00;;;;;;;6.10;2.20;;;;;;;29.73;26.01;100969.16;107943;1257;63946;-80
2023/06/07 09:29:29;;;;;;;3.40;2.30;;;;;;;29.73;25.32;100967.20;107850;1258;64092;-79
2023/06/07 09:31:56;;;;;;;6.90;2.50;;;;;;;29.74;25.50;100965.23;107837;1257;61259;-78
2023/06/07 09:34:25;;;;;;;8.50;2.80;;;;;;;29.76;25.81;100964.95;107808;1257;61158;-80
2023/06/07 09:36:53;;;;;;;6.30;2.20;;;;;;;29.74;25.73;100965.25;107919;1258;66161;-79
2023/06/07 09:39:22;;;;;;;6.80;2.70;;;;;;;29.66;25.76;100963.43;107911;1260;64104;-79
2023/06/07 09:41:51;;;;;;;7.20;2.70;;;;;;;29.61;25.96;100961.41;107848;1257;62434;-80
2023/06/07 09:44:28;;;;;;;5.60;2.70;;;;;;;29.58;26.58;100963.23;107732;1257;61151;-81
2023/06/07 09:46:55;;;;;;;9.80;2.90;;;;;;;29.54;26.93;100963.90;107681;1257;61058;-78
2023/06/07 09:49:27;;;;;;;8.20;3.10;;;;;;;29.50;27.24;100966.77;107798;1257;74618;-79
2023/06/07 09:51:55;;;;;;;7.60;3.10;;;;;;;29.39;26.96;100963.57;107870;1257;63809;-80
2023/06/07 09:54:39;;;;;;;8.60;3.00;;;;;;;29.29;27.27;100960.70;107811;1257;63837;-81
2023/06/07 09:57:08;;;;;;;6.80;3.00;;;;;;;29.28;27.48;100965.48;107812;1257;61121;-79
2023/06/07 09:59:37;;;;;;;4.80;2.80;;;;;;;29.32;27.17;100963.80;107854;1258;61157;-79
2023/06/07 10:02:26;;;;;;;5.40;2.60;;;;;;;29.38;27.07;100967.73;107855;1258;65972;-79
2023/06/07 10:04:55;;;;;;;8.30;2.80;;;;;;;29.46;26.47;100965.45;107859;1257;64097;-80
2023/06/07 10:07:32;;;;;;;5.50;2.50;;;;;;;29.45;26.22;100965.92;107874;1257;72551;-81
2023/06/07 10:09:59;;;;;;;4.10;2.40;;;;;;;29.53;25.90;100965.08;107836;1258;61866;-80
2023/06/07 10:12:28;;;;;;;7.50;2.70;;;;;;;29.60;26.16;100963.36;107872;1257;59206;-80
2023/06/07 10:14:55;;;;;;;8.20;2.90;;;;;;;29.68;26.26;100960.52;107865;1257;64619;-80
2023/06/07 10:17:27;;;;;;;6.50;2.90;;;;;;;29.72;26.30;100959.08;107818;1257;72560;-81
2023/06/07 10:19:59;;;;;;;5.40;2.80;;;;;;;29.78;25.94;100958.67;107810;1262;72517;-80
2023/06/07 10:22:34;;;;;;;5.60;2.70;;;;;;;29.84;25.22;100955.34;107739;1258;61277;-81
2023/06/07 10:25:08;;;;;;;6.00;2.80;;;;;;;29.91;25.24;100951.24;107838;1257;61257;-81
2023/06/07 10:27:52;;;;;;;9.40;3.30;;;;;;;29.99;24.86;100949.27;107898;1257;66033;-79
2023/06/07 10:30:19;;;;;;;12.50;3.60;;;;;;;30.04;25.50;100950.17;107858;1257;63952;-78
2023/06/07 10:32:46;;;;;;;4.90;2.50;;;;;;;30.08;25.45;100947.14;107853;1257;64044;-80
2023/06/07 10:35:13;;;;;;;11.50;3.10;;;;;;;30.14;24.96;100951.99;107863;1256;61256;-79
2023/06/07 10:37:42;;;;;;;4.70;2.80;;;;;;;30.18;24.73;100952.02;107731;1257;61122;-80
2023/06/07 10:40:10;;;;;;;3.50;1.90;;;;;;;30.18;24.52;100950.30;107800;1261;65767;-79
2023/06/07 10:42:43;;;;;;;5.60;2.30;;;;;;;30.17;24.14;100944.39;107902;1256;64130;-79
2023/06/07 10:45:17;;;;;;;7.90;2.60;;;;;;;30.18;24.93;100943.77;107856;1256;62465;-80
2023/06/07 10:47:45;;;;;;;7.10;2.80;;;;;;;30.25;24.33;100939.05;107868;1257;61173;-80
2023/06/07 10:50:27;;;;;;;4.40;2.70;;;;;;;30.31;24.06;100938.54;107876;1256;61264;-80
2023/06/07 10:52:58;;;;;;;7.40;2.60;;;;;;;30.38;24.47;100940.63;107871;1257;66156;-80
2023/06/07 10:55:26;;;;;;;6.50;2.70;;;;;;;30.48;24.68;100941.02;107878;1256;62498;-80
2023/06/07 10:57:53;;;;;;;10.30;2.90;;;;;;;30.53;25.31;100937.52;107806;1257;63929;-79
2023/06/07 11:00:25;;;;;;;9.60;2.80;;;;;;;30.54;25.00;100936.33;107888;1260;61237;-82
2023/06/07 11:03:16;;;;;;;8.90;2.80;;;;;;;30.57;24.33;100935.41;107820;1257;60516;-79
2023/06/07 11:05:53;;;;;;;6.70;2.50;;;;;;;30.64;23.38;100929.85;107837;1257;66061;-81
2023/06/07 11:08:31;;;;;;;8.00;2.80;;;;;;;30.69;23.71;100929.48;107874;1256;72726;-79
2023/06/07 11:11:00;;;;;;;5.90;2.30;;;;;;;30.77;22.96;100927.05;107890;1256;63877;-80
2023/06/07 11:13:43;;;;;;;5.10;2.50;;;;;;;30.79;23.01;100925.16;107854;1257;59026;-80
2023/06/07 11:16:23;;;;;;;7.70;2.60;;;;;;;30.86;23.12;100922.29;107780;1260;61138;-79
2023/06/07 11:19:02;;;;;;;6.50;2.10;;;;;;;30.99;23.20;100921.16;107858;1257;66113;-79
2023/06/07 11:21:30;;;;;;;6.50;2.70;;;;;;;31.03;23.10;100924.33;107801;1257;63988;-79
2023/06/07 11:24:10;;;;;;;5.90;2.20;;;;;;;30.98;22.63;100921.93;107896;1257;64066;-80
2023/06/07 11:26:37;;;;;;;5.90;2.10;;;;;;;30.93;22.64;100918.92;107824;1256;61269;-80